Aullville, Missouri
Current Conditions -  °F | °C
As of 9:55 AM on Wednesday 28 Jan 2015 (Local Time) from KRCM Reporting Station
Clear Clear  
Wind Chill: 12°   Ceiling: Unl
Heat Index: 12°   Visibility: 10mi
Dew Point:   Wind: 13mph
Humidity: 51%   Direction: 150°SSE
Pressure: 29.97"   Gusts: 18mph
Location:  39.0541°N, 93.6618°W
Report Text: KRCM 281555Z AUTO 15011G16KT 10SM CLR 12/02 A2997 RMK AO2
Loading
Personal Weather Stations






























Interactive Weather Map New forecast layout! Learn more

10-Day Weather Forecast

Advertisements
Track Severe Weather on mobile